sensor_id;sensor_type;location;lat;lon;timestamp;pressure;altitude;pressure_sealevel;temperature;humidity
76331;BME280;65148;51.912;15.570;2023-05-31T00:10:46;102374.91;;;14.59;62.68
76331;BME280;65148;51.912;15.570;2023-05-31T00:25:47;102392.67;;;14.42;63.25
76331;BME280;65148;51.912;15.570;2023-05-31T00:41:08;102394.00;;;14.24;64.05
76331;BME280;65148;51.912;15.570;2023-05-31T00:56:11;102391.81;;;14.26;63.83
76331;BME280;65148;51.912;15.570;2023-05-31T01:11:26;102391.17;;;13.99;65.64
76331;BME280;65148;51.912;15.570;2023-05-31T01:26:50;102394.94;;;13.77;66.40
76331;BME280;65148;51.912;15.570;2023-05-31T01:41:52;102388.36;;;13.78;66.27
76331;BME280;65148;51.912;15.570;2023-05-31T01:56:53;102383.41;;;13.70;67.07
76331;BME280;65148;51.912;15.570;2023-05-31T02:11:55;102388.19;;;13.43;67.61
76331;BME280;65148;51.912;15.570;2023-05-31T02:27:10;102392.44;;;13.19;69.38
76331;BME280;65148;51.912;15.570;2023-05-31T02:42:11;102392.22;;;12.93;71.17
76331;BME280;65148;51.912;15.570;2023-05-31T02:57:11;102387.16;;;12.75;72.40
76331;BME280;65148;51.912;15.570;2023-05-31T03:12:13;102393.53;;;12.54;73.85
76331;BME280;65148;51.912;15.570;2023-05-31T03:27:34;102398.77;;;12.33;76.99
76331;BME280;65148;51.912;15.570;2023-05-31T03:42:35;102408.77;;;12.50;76.67
76331;BME280;65148;51.912;15.570;2023-05-31T03:57:36;102400.93;;;12.58;76.97
76331;BME280;65148;51.912;15.570;2023-05-31T04:12:37;102398.03;;;12.70;77.61
76331;BME280;65148;51.912;15.570;2023-05-31T04:27:58;102392.79;;;12.95;77.87
76331;BME280;65148;51.912;15.570;2023-05-31T04:42:59;102390.65;;;13.39;77.23
76331;BME280;65148;51.912;15.570;2023-05-31T04:58:03;102400.71;;;13.86;74.53
76331;BME280;65148;51.912;15.570;2023-05-31T05:13:05;102405.51;;;14.31;73.41
76331;BME280;65148;51.912;15.570;2023-05-31T05:28:21;102394.08;;;14.65;70.59
76331;BME280;65148;51.912;15.570;2023-05-31T05:43:22;102404.75;;;15.22;68.14
76331;BME280;65148;51.912;15.570;2023-05-31T05:58:24;102404.39;;;15.59;67.03
76331;BME280;65148;51.912;15.570;2023-05-31T06:13:25;102408.11;;;15.98;66.24
76331;BME280;65148;51.912;15.570;2023-05-31T06:28:45;102394.87;;;16.50;62.44
76331;BME280;65148;51.912;15.570;2023-05-31T06:43:46;102390.20;;;17.18;59.83
76331;BME280;65148;51.912;15.570;2023-05-31T06:58:47;102389.08;;;17.72;56.62
76331;BME280;65148;51.912;15.570;2023-05-31T07:13:49;102393.66;;;18.00;54.98
76331;BME280;65148;51.912;15.570;2023-05-31T07:29:07;102371.86;;;18.60;54.08
76331;BME280;65148;51.912;15.570;2023-05-31T07:44:08;102368.09;;;19.02;53.42
76331;BME280;65148;51.912;15.570;2023-05-31T07:59:09;102354.53;;;19.60;49.02
76331;BME280;65148;51.912;15.570;2023-05-31T08:14:10;102346.10;;;20.29;49.55
76331;BME280;65148;51.912;15.570;2023-05-31T08:29:30;102324.70;;;20.88;50.60
76331;BME280;65148;51.912;15.570;2023-05-31T08:44:31;102332.83;;;21.55;43.70
76331;BME280;65148;51.912;15.570;2023-05-31T08:59:33;102332.79;;;22.03;44.71
76331;BME280;65148;51.912;15.570;2023-05-31T09:14:37;102320.21;;;22.31;37.60
76331;BME280;65148;51.912;15.570;2023-05-31T09:29:53;102309.06;;;22.66;36.91
76331;BME280;65148;51.912;15.570;2023-05-31T09:44:54;102302.16;;;23.86;35.64
76331;BME280;65148;51.912;15.570;2023-05-31T09:59:58;102294.49;;;24.24;33.67
76331;BME280;65148;51.912;15.570;2023-05-31T10:15:06;102264.05;;;24.40;37.20
76331;BME280;65148;51.912;15.570;2023-05-31T10:30:27;102251.29;;;24.39;34.12
76331;BME280;65148;51.912;15.570;2023-05-31T10:45:38;102242.70;;;25.14;29.83
76331;BME280;65148;51.912;15.570;2023-05-31T11:00:42;102238.01;;;25.42;31.93
76331;BME280;65148;51.912;15.570;2023-05-31T11:16:00;102222.41;;;26.05;30.38
76331;BME280;65148;51.912;15.570;2023-05-31T11:31:01;102204.48;;;26.34;31.06
76331;BME280;65148;51.912;15.570;2023-05-31T11:46:03;102189.72;;;27.51;32.61
76331;BME280;65148;51.912;15.570;2023-05-31T12:01:04;102177.93;;;27.22;25.10
76331;BME280;65148;51.912;15.570;2023-05-31T12:16:30;102169.15;;;26.73;25.85
76331;BME280;65148;51.912;15.570;2023-05-31T12:31:35;102140.67;;;28.38;28.06
76331;BME280;65148;51.912;15.570;2023-05-31T12:46:41;102126.88;;;28.06;25.34
76331;BME280;65148;51.912;15.570;2023-05-31T13:01:42;102103.01;;;27.70;24.86
76331;BME280;65148;51.912;15.570;2023-05-31T13:16:45;102094.13;;;28.56;26.05
76331;BME280;65148;51.912;15.570;2023-05-31T13:32:12;102073.61;;;28.75;27.13
76331;BME280;65148;51.912;15.570;2023-05-31T13:47:20;102046.66;;;28.66;27.24
76331;BME280;65148;51.912;15.570;2023-05-31T14:02:23;102031.32;;;28.30;27.35
76331;BME280;65148;51.912;15.570;2023-05-31T14:17:25;102015.60;;;28.00;28.17
76331;BME280;65148;51.912;15.570;2023-05-31T14:32:26;102002.51;;;28.30;31.13
76331;BME280;65148;51.912;15.570;2023-05-31T14:47:27;101982.30;;;28.17;31.44
76331;BME280;65148;51.912;15.570;2023-05-31T15:02:34;101986.37;;;27.74;30.93
76331;BME280;65148;51.912;15.570;2023-05-31T15:17:35;101977.77;;;27.21;32.37
76331;BME280;65148;51.912;15.570;2023-05-31T15:32:36;101964.53;;;27.18;33.49
76331;BME280;65148;51.912;15.570;2023-05-31T15:47:53;101942.51;;;27.36;31.11
76331;BME280;65148;51.912;15.570;2023-05-31T16:02:55;101935.35;;;26.97;32.64
76331;BME280;65148;51.912;15.570;2023-05-31T16:17:56;101918.67;;;26.27;33.97
76331;BME280;65148;51.912;15.570;2023-05-31T16:32:57;101896.23;;;26.39;32.90
76331;BME280;65148;51.912;15.570;2023-05-31T16:48:14;101880.11;;;26.32;32.25
76331;BME280;65148;51.912;15.570;2023-05-31T17:03:15;101878.47;;;25.61;34.44
76331;BME280;65148;51.912;15.570;2023-05-31T17:18:17;101859.39;;;25.63;33.72
76331;BME280;65148;51.912;15.570;2023-05-31T17:33:20;101849.77;;;25.61;33.37
76331;BME280;65148;51.912;15.570;2023-05-31T17:48:35;101838.94;;;24.96;34.63
76331;BME280;65148;51.912;15.570;2023-05-31T18:03:42;101837.52;;;24.07;39.90
76331;BME280;65148;51.912;15.570;2023-05-31T18:18:43;101845.16;;;23.12;43.70
76331;BME280;65148;51.912;15.570;2023-05-31T18:33:44;101835.89;;;22.21;47.80
76331;BME280;65148;51.912;15.570;2023-05-31T18:48:57;101824.71;;;21.21;51.10
76331;BME280;65148;51.912;15.570;2023-05-31T19:03:58;101829.27;;;20.53;52.80
76331;BME280;65148;51.912;15.570;2023-05-31T19:23:15;101825.30;;;19.37;56.66
76331;BME280;65148;51.912;15.570;2023-05-31T19:38:17;101846.72;;;18.70;59.00
76331;BME280;65148;51.912;15.570;2023-05-31T19:53:21;101844.45;;;18.13;60.74
76331;BME280;65148;51.912;15.570;2023-05-31T20:08:35;101829.29;;;17.34;64.41
76331;BME280;65148;51.912;15.570;2023-05-31T20:23:37;101838.10;;;16.90;65.41
76331;BME280;65148;51.912;15.570;2023-05-31T20:38:38;101828.41;;;16.60;65.51
